sensor_id;sensor_type;location;lat;lon;timestamp;P1;durP1;ratioP1;P2;durP2;ratioP2
4873;SDS011;2451;49.970;9.068;2023-05-10T00:00:36;3.45;;;1.80;;
4873;SDS011;2451;49.970;9.068;2023-05-10T00:03:02;2.72;;;2.03;;
4873;SDS011;2451;49.970;9.068;2023-05-10T00:05:30;4.28;;;1.80;;
4873;SDS011;2451;49.970;9.068;2023-05-10T00:07:56;3.58;;;2.20;;
4873;SDS011;2451;49.970;9.068;2023-05-10T00:10:21;1.60;;;1.50;;
4873;SDS011;2451;49.970;9.068;2023-05-10T00:12:47;3.28;;;1.95;;
4873;SDS011;2451;49.970;9.068;2023-05-10T00:15:12;1.40;;;1.30;;
4873;SDS011;2451;49.970;9.068;2023-05-10T00:17:38;3.08;;;1.20;;
4873;SDS011;2451;49.970;9.068;2023-05-10T00:20:04;2.15;;;1.27;;
4873;SDS011;2451;49.970;9.068;2023-05-10T00:22:30;1.45;;;1.20;;
4873;SDS011;2451;49.970;9.068;2023-05-10T00:24:56;2.53;;;1.60;;
4873;SDS011;2451;49.970;9.068;2023-05-10T00:27:22;1.45;;;1.30;;
4873;SDS011;2451;49.970;9.068;2023-05-10T00:29:48;5.28;;;1.38;;
4873;SDS011;2451;49.970;9.068;2023-05-10T00:32:13;1.98;;;1.40;;
4873;SDS011;2451;49.970;9.068;2023-05-10T00:34:39;1.10;;;1.00;;
4873;SDS011;2451;49.970;9.068;2023-05-10T00:37:04;2.97;;;1.30;;
4873;SDS011;2451;49.970;9.068;2023-05-10T00:39:30;2.53;;;1.05;;
4873;SDS011;2451;49.970;9.068;2023-05-10T00:41:56;1.38;;;1.10;;
4873;SDS011;2451;49.970;9.068;2023-05-10T00:44:21;1.20;;;0.95;;
4873;SDS011;2451;49.970;9.068;2023-05-10T00:46:48;1.95;;;1.10;;
4873;SDS011;2451;49.970;9.068;2023-05-10T00:49:14;1.45;;;1.17;;
4873;SDS011;2451;49.970;9.068;2023-05-10T00:51:41;1.70;;;1.17;;
4873;SDS011;2451;49.970;9.068;2023-05-10T00:54:08;2.53;;;1.00;;
4873;SDS011;2451;49.970;9.068;2023-05-10T00:56:36;1.55;;;1.00;;
4873;SDS011;2451;49.970;9.068;2023-05-10T00:59:01;1.67;;;0.85;;
4873;SDS011;2451;49.970;9.068;2023-05-10T01:01:27;1.27;;;0.90;;
4873;SDS011;2451;49.970;9.068;2023-05-10T01:03:54;2.17;;;0.90;;
4873;SDS011;2451;49.970;9.068;2023-05-10T01:06:20;2.90;;;0.88;;
4873;SDS011;2451;49.970;9.068;2023-05-10T01:08:45;1.55;;;1.00;;
4873;SDS011;2451;49.970;9.068;2023-05-10T01:11:12;2.50;;;0.77;;
4873;SDS011;2451;49.970;9.068;2023-05-10T01:13:39;2.28;;;0.82;;
4873;SDS011;2451;49.970;9.068;2023-05-10T01:16:07;1.40;;;0.70;;
4873;SDS011;2451;49.970;9.068;2023-05-10T01:18:34;1.65;;;0.80;;
4873;SDS011;2451;49.970;9.068;2023-05-10T01:23:39;4.32;;;0.95;;
4873;SDS011;2451;49.970;9.068;2023-05-10T01:26:30;2.50;;;0.93;;
4873;SDS011;2451;49.970;9.068;2023-05-10T01:32:16;1.10;;;0.80;;
4873;SDS011;2451;49.970;9.068;2023-05-10T01:37:41;2.70;;;0.90;;
4873;SDS011;2451;49.970;9.068;2023-05-10T01:40:21;1.10;;;0.60;;
4873;SDS011;2451;49.970;9.068;2023-05-10T01:42:53;1.08;;;0.60;;
4873;SDS011;2451;49.970;9.068;2023-05-10T01:45:29;2.88;;;0.80;;
4873;SDS011;2451;49.970;9.068;2023-05-10T01:48:03;1.30;;;0.70;;
4873;SDS011;2451;49.970;9.068;2023-05-10T01:50:32;0.85;;;0.70;;
4873;SDS011;2451;49.970;9.068;2023-05-10T01:52:59;0.68;;;0.68;;
4873;SDS011;2451;49.970;9.068;2023-05-10T01:55:27;1.55;;;0.90;;
4873;SDS011;2451;49.970;9.068;2023-05-10T01:57:58;2.53;;;0.90;;
4873;SDS011;2451;49.970;9.068;2023-05-10T02:00:34;1.17;;;0.80;;
4873;SDS011;2451;49.970;9.068;2023-05-10T02:03:01;1.73;;;1.02;;
4873;SDS011;2451;49.970;9.068;2023-05-10T02:05:30;1.05;;;0.88;;
4873;SDS011;2451;49.970;9.068;2023-05-10T02:07:57;1.35;;;1.00;;
4873;SDS011;2451;49.970;9.068;2023-05-10T02:10:26;1.60;;;0.90;;
4873;SDS011;2451;49.970;9.068;2023-05-10T02:12:53;1.67;;;1.05;;
4873;SDS011;2451;49.970;9.068;2023-05-10T02:15:23;4.05;;;1.10;;
4873;SDS011;2451;49.970;9.068;2023-05-10T02:17:51;3.38;;;0.85;;
4873;SDS011;2451;49.970;9.068;2023-05-10T02:20:19;3.58;;;1.08;;
4873;SDS011;2451;49.970;9.068;2023-05-10T02:22:47;2.13;;;1.08;;
4873;SDS011;2451;49.970;9.068;2023-05-10T02:25:15;1.80;;;0.98;;
4873;SDS011;2451;49.970;9.068;2023-05-10T02:27:43;2.38;;;1.10;;
4873;SDS011;2451;49.970;9.068;2023-05-10T02:30:10;1.52;;;1.00;;
4873;SDS011;2451;49.970;9.068;2023-05-10T02:32:37;3.30;;;1.10;;
4873;SDS011;2451;49.970;9.068;2023-05-10T02:35:04;1.05;;;0.95;;
4873;SDS011;2451;49.970;9.068;2023-05-10T02:37:30;1.95;;;1.17;;
4873;SDS011;2451;49.970;9.068;2023-05-10T02:39:57;6.18;;;1.50;;
4873;SDS011;2451;49.970;9.068;2023-05-10T02:42:27;2.42;;;1.40;;
4873;SDS011;2451;49.970;9.068;2023-05-10T02:44:56;2.75;;;1.50;;
4873;SDS011;2451;49.970;9.068;2023-05-10T02:47:25;3.83;;;1.60;;
4873;SDS011;2451;49.970;9.068;2023-05-10T02:49:52;2.55;;;1.50;;
4873;SDS011;2451;49.970;9.068;2023-05-10T02:52:21;1.48;;;1.38;;
4873;SDS011;2451;49.970;9.068;2023-05-10T02:54:50;3.55;;;1.80;;
4873;SDS011;2451;49.970;9.068;2023-05-10T02:57:22;3.38;;;1.85;;
4873;SDS011;2451;49.970;9.068;2023-05-10T02:59:52;2.85;;;1.77;;
4873;SDS011;2451;49.970;9.068;2023-05-10T03:02:18;2.45;;;1.88;;
4873;SDS011;2451;49.970;9.068;2023-05-10T03:04:46;2.42;;;1.73;;
4873;SDS011;2451;49.970;9.068;2023-05-10T03:07:12;5.27;;;1.80;;
4873;SDS011;2451;49.970;9.068;2023-05-10T03:09:38;3.75;;;1.85;;
4873;SDS011;2451;49.970;9.068;2023-05-10T03:22:24;2.17;;;1.80;;
4873;SDS011;2451;49.970;9.068;2023-05-10T03:24:55;4.85;;;2.00;;
4873;SDS011;2451;49.970;9.068;2023-05-10T03:27:22;2.45;;;1.77;;
4873;SDS011;2451;49.970;9.068;2023-05-10T03:29:50;3.53;;;1.80;;
4873;SDS011;2451;49.970;9.068;2023-05-10T03:32:17;3.20;;;1.90;;
4873;SDS011;2451;49.970;9.068;2023-05-10T03:34:43;1.63;;;1.52;;
4873;SDS011;2451;49.970;9.068;2023-05-10T03:37:08;2.33;;;1.55;;
4873;SDS011;2451;49.970;9.068;2023-05-10T03:39:34;1.65;;;1.55;;
4873;SDS011;2451;49.970;9.068;2023-05-10T03:42:00;2.00;;;1.80;;
4873;SDS011;2451;49.970;9.068;2023-05-10T03:44:25;2.67;;;1.65;;
4873;SDS011;2451;49.970;9.068;2023-05-10T03:46:51;1.80;;;1.67;;
4873;SDS011;2451;49.970;9.068;2023-05-10T03:49:17;3.25;;;1.73;;
4873;SDS011;2451;49.970;9.068;2023-05-10T03:51:42;3.03;;;1.80;;
4873;SDS011;2451;49.970;9.068;2023-05-10T03:54:08;2.67;;;1.70;;
4873;SDS011;2451;49.970;9.068;2023-05-10T03:56:33;2.13;;;1.60;;
4873;SDS011;2451;49.970;9.068;2023-05-10T03:58:59;2.22;;;1.80;;
4873;SDS011;2451;49.970;9.068;2023-05-10T04:01:24;1.80;;;1.55;;
4873;SDS011;2451;49.970;9.068;2023-05-10T04:03:50;2.55;;;1.55;;
4873;SDS011;2451;49.970;9.068;2023-05-10T04:06:15;4.22;;;1.65;;
4873;SDS011;2451;49.970;9.068;2023-05-10T04:08:41;4.63;;;1.70;;
4873;SDS011;2451;49.970;9.068;2023-05-10T04:11:11;2.15;;;1.63;;
4873;SDS011;2451;49.970;9.068;2023-05-10T04:13:37;3.83;;;1.92;;
4873;SDS011;2451;49.970;9.068;2023-05-10T04:16:03;2.95;;;1.50;;
4873;SDS011;2451;49.970;9.068;2023-05-10T04:18:29;3.15;;;1.80;;
4873;SDS011;2451;49.970;9.068;2023-05-10T04:20:56;2.85;;;1.42;;
4873;SDS011;2451;49.970;9.068;2023-05-10T04:23:22;5.18;;;1.92;;
4873;SDS011;2451;49.970;9.068;2023-05-10T04:25:48;4.10;;;1.65;;
4873;SDS011;2451;49.970;9.068;2023-05-10T04:28:13;2.30;;;1.63;;
4873;SDS011;2451;49.970;9.068;2023-05-10T04:30:39;3.38;;;1.70;;
4873;SDS011;2451;49.970;9.068;2023-05-10T04:33:05;4.82;;;1.80;;
4873;SDS011;2451;49.970;9.068;2023-05-10T04:35:31;4.03;;;2.03;;
4873;SDS011;2451;49.970;9.068;2023-05-10T04:37:56;2.22;;;1.80;;
4873;SDS011;2451;49.970;9.068;2023-05-10T04:40:22;5.00;;;1.75;;
4873;SDS011;2451;49.970;9.068;2023-05-10T04:42:47;5.13;;;2.20;;
4873;SDS011;2451;49.970;9.068;2023-05-10T04:45:13;2.03;;;1.50;;
4873;SDS011;2451;49.970;9.068;2023-05-10T04:47:41;6.00;;;1.75;;
4873;SDS011;2451;49.970;9.068;2023-05-10T04:50:07;2.58;;;1.77;;
4873;SDS011;2451;49.970;9.068;2023-05-10T04:52:33;2.80;;;1.83;;
4873;SDS011;2451;49.970;9.068;2023-05-10T04:54:58;3.70;;;1.65;;
4873;SDS011;2451;49.970;9.068;2023-05-10T04:57:24;4.57;;;1.80;;
4873;SDS011;2451;49.970;9.068;2023-05-10T04:59:49;1.95;;;1.60;;
4873;SDS011;2451;49.970;9.068;2023-05-10T05:02:15;4.35;;;1.50;;
4873;SDS011;2451;49.970;9.068;2023-05-10T05:04:41;2.75;;;1.60;;
4873;SDS011;2451;49.970;9.068;2023-05-10T05:07:06;2.13;;;1.60;;
4873;SDS011;2451;49.970;9.068;2023-05-10T05:09:32;3.35;;;1.52;;
4873;SDS011;2451;49.970;9.068;2023-05-10T05:11:58;3.63;;;1.70;;
4873;SDS011;2451;49.970;9.068;2023-05-10T05:14:23;2.70;;;1.70;;
4873;SDS011;2451;49.970;9.068;2023-05-10T05:16:50;5.82;;;2.00;;
4873;SDS011;2451;49.970;9.068;2023-05-10T05:19:16;6.28;;;1.92;;
4873;SDS011;2451;49.970;9.068;2023-05-10T05:21:41;2.83;;;2.10;;
4873;SDS011;2451;49.970;9.068;2023-05-10T05:24:07;3.88;;;2.35;;
4873;SDS011;2451;49.970;9.068;2023-05-10T05:26:33;3.08;;;2.17;;
4873;SDS011;2451;49.970;9.068;2023-05-10T05:28:58;2.33;;;2.13;;
4873;SDS011;2451;49.970;9.068;2023-05-10T05:31:24;3.95;;;2.25;;
4873;SDS011;2451;49.970;9.068;2023-05-10T05:33:49;4.82;;;2.63;;
4873;SDS011;2451;49.970;9.068;2023-05-10T05:36:15;3.45;;;2.50;;
4873;SDS011;2451;49.970;9.068;2023-05-10T05:38:41;5.60;;;2.50;;
4873;SDS011;2451;49.970;9.068;2023-05-10T05:41:07;5.18;;;2.55;;
4873;SDS011;2451;49.970;9.068;2023-05-10T05:43:33;3.80;;;2.63;;
4873;SDS011;2451;49.970;9.068;2023-05-10T05:45:59;5.28;;;2.60;;
4873;SDS011;2451;49.970;9.068;2023-05-10T05:48:24;5.03;;;2.58;;
4873;SDS011;2451;49.970;9.068;2023-05-10T05:50:50;3.40;;;2.22;;
4873;SDS011;2451;49.970;9.068;2023-05-10T05:53:18;5.28;;;2.55;;
4873;SDS011;2451;49.970;9.068;2023-05-10T05:55:54;4.85;;;2.72;;
4873;SDS011;2451;49.970;9.068;2023-05-10T05:58:21;3.67;;;2.72;;
4873;SDS011;2451;49.970;9.068;2023-05-10T06:00:47;5.00;;;2.85;;
4873;SDS011;2451;49.970;9.068;2023-05-10T06:03:13;5.63;;;2.80;;
4873;SDS011;2451;49.970;9.068;2023-05-10T06:05:39;5.50;;;3.20;;
4873;SDS011;2451;49.970;9.068;2023-05-10T06:08:04;4.68;;;2.83;;
4873;SDS011;2451;49.970;9.068;2023-05-10T06:10:30;5.05;;;2.72;;
4873;SDS011;2451;49.970;9.068;2023-05-10T06:12:56;5.07;;;3.05;;
4873;SDS011;2451;49.970;9.068;2023-05-10T06:15:21;4.60;;;2.90;;
4873;SDS011;2451;49.970;9.068;2023-05-10T06:17:47;8.00;;;3.20;;
4873;SDS011;2451;49.970;9.068;2023-05-10T06:20:14;7.35;;;2.92;;
4873;SDS011;2451;49.970;9.068;2023-05-10T06:22:40;6.43;;;3.13;;
4873;SDS011;2451;49.970;9.068;2023-05-10T06:25:06;10.13;;;3.17;;
4873;SDS011;2451;49.970;9.068;2023-05-10T06:27:32;8.40;;;3.83;;
4873;SDS011;2451;49.970;9.068;2023-05-10T06:29:58;6.75;;;2.97;;
4873;SDS011;2451;49.970;9.068;2023-05-10T06:32:23;6.75;;;2.88;;
4873;SDS011;2451;49.970;9.068;2023-05-10T06:34:49;9.25;;;2.80;;
4873;SDS011;2451;49.970;9.068;2023-05-10T06:37:14;5.90;;;2.70;;
4873;SDS011;2451;49.970;9.068;2023-05-10T06:39:40;4.13;;;2.60;;
4873;SDS011;2451;49.970;9.068;2023-05-10T06:42:05;6.72;;;2.50;;
4873;SDS011;2451;49.970;9.068;2023-05-10T06:44:31;4.72;;;2.58;;
4873;SDS011;2451;49.970;9.068;2023-05-10T06:46:57;4.53;;;2.47;;
4873;SDS011;2451;49.970;9.068;2023-05-10T06:49:22;6.72;;;2.65;;
4873;SDS011;2451;49.970;9.068;2023-05-10T06:51:48;5.13;;;2.35;;
4873;SDS011;2451;49.970;9.068;2023-05-10T06:54:14;5.63;;;2.60;;
4873;SDS011;2451;49.970;9.068;2023-05-10T06:56:39;5.18;;;2.58;;
4873;SDS011;2451;49.970;9.068;2023-05-10T06:59:05;4.70;;;2.60;;
4873;SDS011;2451;49.970;9.068;2023-05-10T07:01:31;4.75;;;2.63;;
4873;SDS011;2451;49.970;9.068;2023-05-10T07:03:57;6.80;;;2.40;;
4873;SDS011;2451;49.970;9.068;2023-05-10T07:06:22;4.65;;;2.58;;
4873;SDS011;2451;49.970;9.068;2023-05-10T07:08:48;6.00;;;2.53;;
4873;SDS011;2451;49.970;9.068;2023-05-10T07:11:13;5.53;;;2.50;;
4873;SDS011;2451;49.970;9.068;2023-05-10T07:13:39;7.57;;;2.60;;
4873;SDS011;2451;49.970;9.068;2023-05-10T07:16:06;6.22;;;2.95;;
4873;SDS011;2451;49.970;9.068;2023-05-10T07:18:32;5.13;;;2.53;;
4873;SDS011;2451;49.970;9.068;2023-05-10T07:20:58;8.15;;;2.58;;
4873;SDS011;2451;49.970;9.068;2023-05-10T07:23:23;5.13;;;2.70;;
4873;SDS011;2451;49.970;9.068;2023-05-10T07:25:50;5.40;;;2.20;;
4873;SDS011;2451;49.970;9.068;2023-05-10T07:28:19;6.72;;;2.33;;
4873;SDS011;2451;49.970;9.068;2023-05-10T07:30:45;3.72;;;2.45;;
4873;SDS011;2451;49.970;9.068;2023-05-10T07:33:12;8.68;;;2.80;;
4873;SDS011;2451;49.970;9.068;2023-05-10T07:35:39;5.53;;;2.53;;
4873;SDS011;2451;49.970;9.068;2023-05-10T07:38:04;4.47;;;2.40;;
4873;SDS011;2451;49.970;9.068;2023-05-10T07:40:30;7.70;;;2.38;;
4873;SDS011;2451;49.970;9.068;2023-05-10T07:42:56;5.28;;;2.50;;
4873;SDS011;2451;49.970;9.068;2023-05-10T07:45:22;5.53;;;2.63;;
4873;SDS011;2451;49.970;9.068;2023-05-10T07:47:48;5.07;;;2.58;;
4873;SDS011;2451;49.970;9.068;2023-05-10T07:50:13;5.90;;;2.50;;
4873;SDS011;2451;49.970;9.068;2023-05-10T07:52:39;5.25;;;2.50;;
4873;SDS011;2451;49.970;9.068;2023-05-10T07:55:05;5.25;;;2.40;;
4873;SDS011;2451;49.970;9.068;2023-05-10T07:57:33;7.63;;;2.92;;
4873;SDS011;2451;49.970;9.068;2023-05-10T07:59:59;4.65;;;2.40;;
4873;SDS011;2451;49.970;9.068;2023-05-10T08:02:24;6.05;;;2.50;;
4873;SDS011;2451;49.970;9.068;2023-05-10T08:04:50;4.22;;;2.58;;
4873;SDS011;2451;49.970;9.068;2023-05-10T08:07:16;7.53;;;3.25;;
4873;SDS011;2451;49.970;9.068;2023-05-10T08:09:41;5.22;;;2.70;;
4873;SDS011;2451;49.970;9.068;2023-05-10T08:12:07;5.25;;;2.70;;
4873;SDS011;2451;49.970;9.068;2023-05-10T08:14:33;7.45;;;3.05;;
4873;SDS011;2451;49.970;9.068;2023-05-10T08:16:58;6.68;;;2.65;;
4873;SDS011;2451;49.970;9.068;2023-05-10T08:19:24;4.40;;;2.70;;
4873;SDS011;2451;49.970;9.068;2023-05-10T08:21:50;6.60;;;2.92;;
4873;SDS011;2451;49.970;9.068;2023-05-10T08:24:15;4.78;;;2.83;;
4873;SDS011;2451;49.970;9.068;2023-05-10T08:26:41;5.85;;;2.90;;
4873;SDS011;2451;49.970;9.068;2023-05-10T08:29:07;8.27;;;3.05;;
4873;SDS011;2451;49.970;9.068;2023-05-10T08:31:32;5.50;;;2.80;;
4873;SDS011;2451;49.970;9.068;2023-05-10T08:33:58;3.80;;;2.47;;
4873;SDS011;2451;49.970;9.068;2023-05-10T08:36:23;4.88;;;2.70;;
4873;SDS011;2451;49.970;9.068;2023-05-10T08:38:52;4.78;;;2.90;;
4873;SDS011;2451;49.970;9.068;2023-05-10T08:41:22;4.53;;;2.50;;
4873;SDS011;2451;49.970;9.068;2023-05-10T08:43:49;4.95;;;2.50;;
4873;SDS011;2451;49.970;9.068;2023-05-10T08:46:16;5.97;;;2.70;;
4873;SDS011;2451;49.970;9.068;2023-05-10T08:48:44;5.63;;;2.72;;
4873;SDS011;2451;49.970;9.068;2023-05-10T08:51:12;5.50;;;2.60;;
4873;SDS011;2451;49.970;9.068;2023-05-10T08:53:39;5.15;;;2.65;;
4873;SDS011;2451;49.970;9.068;2023-05-10T08:56:04;4.13;;;2.60;;
4873;SDS011;2451;49.970;9.068;2023-05-10T08:58:30;4.13;;;2.70;;
4873;SDS011;2451;49.970;9.068;2023-05-10T09:00:58;4.68;;;2.30;;
4873;SDS011;2451;49.970;9.068;2023-05-10T09:03:24;3.97;;;2.35;;
4873;SDS011;2451;49.970;9.068;2023-05-10T09:05:50;5.25;;;2.67;;
4873;SDS011;2451;49.970;9.068;2023-05-10T09:08:16;4.97;;;2.53;;
4873;SDS011;2451;49.970;9.068;2023-05-10T09:10:45;4.65;;;2.67;;
4873;SDS011;2451;49.970;9.068;2023-05-10T09:13:12;5.93;;;2.60;;
4873;SDS011;2451;49.970;9.068;2023-05-10T09:15:40;4.40;;;2.65;;
4873;SDS011;2451;49.970;9.068;2023-05-10T09:18:06;3.95;;;2.45;;
4873;SDS011;2451;49.970;9.068;2023-05-10T09:20:31;5.63;;;2.42;;
4873;SDS011;2451;49.970;9.068;2023-05-10T09:22:57;4.82;;;2.20;;
4873;SDS011;2451;49.970;9.068;2023-05-10T09:25:23;5.20;;;2.17;;
4873;SDS011;2451;49.970;9.068;2023-05-10T09:27:48;4.13;;;2.35;;
4873;SDS011;2451;49.970;9.068;2023-05-10T09:30:32;3.45;;;2.28;;
4873;SDS011;2451;49.970;9.068;2023-05-10T09:32:58;3.17;;;2.22;;
4873;SDS011;2451;49.970;9.068;2023-05-10T09:35:26;3.15;;;1.92;;
4873;SDS011;2451;49.970;9.068;2023-05-10T09:37:53;2.67;;;2.00;;
4873;SDS011;2451;49.970;9.068;2023-05-10T09:40:22;2.00;;;1.70;;
4873;SDS011;2451;49.970;9.068;2023-05-10T09:42:56;3.55;;;1.92;;
4873;SDS011;2451;49.970;9.068;2023-05-10T09:45:26;3.63;;;2.00;;
4873;SDS011;2451;49.970;9.068;2023-05-10T09:47:53;3.20;;;1.90;;
4873;SDS011;2451;49.970;9.068;2023-05-10T09:50:19;3.30;;;2.03;;
4873;SDS011;2451;49.970;9.068;2023-05-10T09:52:50;2.50;;;1.80;;
4873;SDS011;2451;49.970;9.068;2023-05-10T09:55:18;3.88;;;1.90;;
4873;SDS011;2451;49.970;9.068;2023-05-10T09:57:46;5.03;;;2.13;;
4873;SDS011;2451;49.970;9.068;2023-05-10T10:00:19;3.67;;;2.40;;
4873;SDS011;2451;49.970;9.068;2023-05-10T10:02:53;2.85;;;2.10;;
4873;SDS011;2451;49.970;9.068;2023-05-10T10:05:21;5.07;;;2.65;;
4873;SDS011;2451;49.970;9.068;2023-05-10T10:07:56;3.72;;;2.47;;
4873;SDS011;2451;49.970;9.068;2023-05-10T10:10:23;3.88;;;2.50;;
4873;SDS011;2451;49.970;9.068;2023-05-10T10:12:50;4.45;;;2.90;;
4873;SDS011;2451;49.970;9.068;2023-05-10T10:15:16;4.70;;;2.58;;
4873;SDS011;2451;49.970;9.068;2023-05-10T10:17:42;6.75;;;2.67;;
4873;SDS011;2451;49.970;9.068;2023-05-10T10:20:08;4.22;;;2.55;;
4873;SDS011;2451;49.970;9.068;2023-05-10T10:22:34;3.80;;;2.50;;
4873;SDS011;2451;49.970;9.068;2023-05-10T10:25:01;4.75;;;2.42;;
4873;SDS011;2451;49.970;9.068;2023-05-10T10:27:36;4.32;;;2.50;;
4873;SDS011;2451;49.970;9.068;2023-05-10T10:35:28;3.90;;;2.47;;
4873;SDS011;2451;49.970;9.068;2023-05-10T10:37:55;3.22;;;2.03;;
4873;SDS011;2451;49.970;9.068;2023-05-10T10:40:22;5.45;;;1.88;;
4873;SDS011;2451;49.970;9.068;2023-05-10T10:42:55;4.72;;;2.40;;
4873;SDS011;2451;49.970;9.068;2023-05-10T10:45:21;2.83;;;2.03;;
4873;SDS011;2451;49.970;9.068;2023-05-10T10:47:48;3.10;;;2.17;;
4873;SDS011;2451;49.970;9.068;2023-05-10T10:50:44;2.65;;;1.80;;
4873;SDS011;2451;49.970;9.068;2023-05-10T10:53:11;2.10;;;1.40;;
4873;SDS011;2451;49.970;9.068;2023-05-10T10:55:44;2.53;;;1.30;;
4873;SDS011;2451;49.970;9.068;2023-05-10T10:58:12;3.10;;;1.50;;
4873;SDS011;2451;49.970;9.068;2023-05-10T11:01:17;3.78;;;1.50;;
4873;SDS011;2451;49.970;9.068;2023-05-10T11:06:30;6.68;;;1.67;;
4873;SDS011;2451;49.970;9.068;2023-05-10T11:09:00;3.78;;;1.60;;
4873;SDS011;2451;49.970;9.068;2023-05-10T11:11:31;2.63;;;1.45;;
4873;SDS011;2451;49.970;9.068;2023-05-10T11:14:02;3.20;;;1.70;;
4873;SDS011;2451;49.970;9.068;2023-05-10T11:16:29;4.35;;;1.92;;
4873;SDS011;2451;49.970;9.068;2023-05-10T11:21:44;4.18;;;1.75;;
4873;SDS011;2451;49.970;9.068;2023-05-10T11:24:13;2.67;;;1.50;;
4873;SDS011;2451;49.970;9.068;2023-05-10T11:26:40;4.45;;;1.70;;
4873;SDS011;2451;49.970;9.068;2023-05-10T11:29:06;2.58;;;1.60;;
4873;SDS011;2451;49.970;9.068;2023-05-10T11:31:32;3.65;;;1.90;;
4873;SDS011;2451;49.970;9.068;2023-05-10T11:33:58;3.85;;;1.70;;
4873;SDS011;2451;49.970;9.068;2023-05-10T11:36:27;3.65;;;2.00;;
4873;SDS011;2451;49.970;9.068;2023-05-10T11:38:54;2.88;;;1.45;;
4873;SDS011;2451;49.970;9.068;2023-05-10T11:41:21;3.78;;;1.70;;
4873;SDS011;2451;49.970;9.068;2023-05-10T11:43:54;3.00;;;1.80;;
4873;SDS011;2451;49.970;9.068;2023-05-10T11:46:21;3.13;;;1.70;;
4873;SDS011;2451;49.970;9.068;2023-05-10T11:48:52;4.13;;;1.98;;
4873;SDS011;2451;49.970;9.068;2023-05-10T11:51:20;3.42;;;1.90;;
4873;SDS011;2451;49.970;9.068;2023-05-10T11:53:50;2.95;;;1.80;;
4873;SDS011;2451;49.970;9.068;2023-05-10T11:56:18;3.80;;;1.60;;
4873;SDS011;2451;49.970;9.068;2023-05-10T11:58:43;2.33;;;1.60;;
4873;SDS011;2451;49.970;9.068;2023-05-10T12:01:09;2.65;;;1.60;;
4873;SDS011;2451;49.970;9.068;2023-05-10T12:03:35;4.15;;;2.30;;
4873;SDS011;2451;49.970;9.068;2023-05-10T12:06:02;2.03;;;1.75;;
4873;SDS011;2451;49.970;9.068;2023-05-10T12:08:28;5.00;;;1.58;;
4873;SDS011;2451;49.970;9.068;2023-05-10T12:11:08;2.88;;;1.60;;
4873;SDS011;2451;49.970;9.068;2023-05-10T12:13:39;1.65;;;1.55;;
4873;SDS011;2451;49.970;9.068;2023-05-10T12:16:22;2.70;;;1.50;;
4873;SDS011;2451;49.970;9.068;2023-05-10T12:18:52;3.55;;;1.92;;
4873;SDS011;2451;49.970;9.068;2023-05-10T12:21:20;1.90;;;1.50;;
4873;SDS011;2451;49.970;9.068;2023-05-10T12:23:47;5.00;;;1.60;;
4873;SDS011;2451;49.970;9.068;2023-05-10T12:26:15;2.00;;;1.50;;
4873;SDS011;2451;49.970;9.068;2023-05-10T12:28:41;3.20;;;1.55;;
4873;SDS011;2451;49.970;9.068;2023-05-10T12:31:07;2.03;;;1.63;;
4873;SDS011;2451;49.970;9.068;2023-05-10T12:33:43;5.68;;;1.70;;
4873;SDS011;2451;49.970;9.068;2023-05-10T12:36:10;4.78;;;1.70;;
4873;SDS011;2451;49.970;9.068;2023-05-10T12:41:05;3.83;;;1.58;;
4873;SDS011;2451;49.970;9.068;2023-05-10T12:43:32;6.00;;;1.60;;
4873;SDS011;2451;49.970;9.068;2023-05-10T12:46:04;2.15;;;1.33;;
4873;SDS011;2451;49.970;9.068;2023-05-10T12:48:33;2.80;;;1.33;;
4873;SDS011;2451;49.970;9.068;2023-05-10T12:51:00;2.38;;;1.20;;
4873;SDS011;2451;49.970;9.068;2023-05-10T12:53:26;2.78;;;1.92;;
4873;SDS011;2451;49.970;9.068;2023-05-10T12:55:52;2.67;;;1.40;;
4873;SDS011;2451;49.970;9.068;2023-05-10T12:58:18;1.75;;;1.10;;
4873;SDS011;2451;49.970;9.068;2023-05-10T13:00:44;1.33;;;1.15;;
4873;SDS011;2451;49.970;9.068;2023-05-10T13:03:10;2.03;;;1.10;;
4873;SDS011;2451;49.970;9.068;2023-05-10T13:05:36;3.70;;;1.05;;
4873;SDS011;2451;49.970;9.068;2023-05-10T13:08:01;3.97;;;1.10;;
4873;SDS011;2451;49.970;9.068;2023-05-10T13:10:28;1.75;;;1.02;;
4873;SDS011;2451;49.970;9.068;2023-05-10T13:12:55;4.25;;;1.35;;
4873;SDS011;2451;49.970;9.068;2023-05-10T13:15:21;1.92;;;1.08;;
4873;SDS011;2451;49.970;9.068;2023-05-10T13:17:47;7.43;;;1.25;;
4873;SDS011;2451;49.970;9.068;2023-05-10T13:20:12;1.65;;;1.15;;
4873;SDS011;2451;49.970;9.068;2023-05-10T13:22:38;2.75;;;1.23;;
4873;SDS011;2451;49.970;9.068;2023-05-10T13:25:03;1.95;;;1.15;;
4873;SDS011;2451;49.970;9.068;2023-05-10T13:27:29;2.05;;;1.00;;
4873;SDS011;2451;49.970;9.068;2023-05-10T13:29:55;2.38;;;1.10;;
4873;SDS011;2451;49.970;9.068;2023-05-10T13:32:20;2.53;;;1.17;;
4873;SDS011;2451;49.970;9.068;2023-05-10T13:34:46;4.07;;;1.13;;
4873;SDS011;2451;49.970;9.068;2023-05-10T13:37:12;1.77;;;1.33;;
4873;SDS011;2451;49.970;9.068;2023-05-10T13:39:37;1.80;;;1.05;;
4873;SDS011;2451;49.970;9.068;2023-05-10T13:42:03;4.45;;;1.17;;
4873;SDS011;2451;49.970;9.068;2023-05-10T13:44:29;2.97;;;1.10;;
4873;SDS011;2451;49.970;9.068;2023-05-10T13:46:55;2.33;;;1.00;;
4873;SDS011;2451;49.970;9.068;2023-05-10T13:49:21;1.80;;;1.08;;
4873;SDS011;2451;49.970;9.068;2023-05-10T13:51:47;3.63;;;1.25;;
4873;SDS011;2451;49.970;9.068;2023-05-10T13:54:13;3.42;;;1.10;;
4873;SDS011;2451;49.970;9.068;2023-05-10T13:56:38;1.55;;;1.10;;
4873;SDS011;2451;49.970;9.068;2023-05-10T13:59:05;3.00;;;0.98;;
4873;SDS011;2451;49.970;9.068;2023-05-10T14:01:32;4.07;;;1.10;;
4873;SDS011;2451;49.970;9.068;2023-05-10T14:03:58;2.75;;;0.98;;
4873;SDS011;2451;49.970;9.068;2023-05-10T14:06:24;3.70;;;1.00;;
4873;SDS011;2451;49.970;9.068;2023-05-10T14:08:49;2.88;;;1.00;;
4873;SDS011;2451;49.970;9.068;2023-05-10T14:11:15;1.45;;;0.90;;
4873;SDS011;2451;49.970;9.068;2023-05-10T14:13:41;3.90;;;1.10;;
4873;SDS011;2451;49.970;9.068;2023-05-10T14:16:06;2.17;;;0.93;;
4873;SDS011;2451;49.970;9.068;2023-05-10T14:18:32;6.72;;;1.00;;
4873;SDS011;2451;49.970;9.068;2023-05-10T14:20:57;1.23;;;0.75;;
4873;SDS011;2451;49.970;9.068;2023-05-10T14:23:23;1.13;;;1.00;;
4873;SDS011;2451;49.970;9.068;2023-05-10T14:25:49;4.93;;;1.00;;
4873;SDS011;2451;49.970;9.068;2023-05-10T14:28:16;1.80;;;1.20;;
4873;SDS011;2451;49.970;9.068;2023-05-10T14:30:43;2.83;;;1.50;;
4873;SDS011;2451;49.970;9.068;2023-05-10T14:33:09;2.03;;;1.20;;
4873;SDS011;2451;49.970;9.068;2023-05-10T14:35:35;3.10;;;1.20;;
4873;SDS011;2451;49.970;9.068;2023-05-10T14:38:01;2.67;;;1.50;;
4873;SDS011;2451;49.970;9.068;2023-05-10T14:40:28;2.85;;;1.40;;
4873;SDS011;2451;49.970;9.068;2023-05-10T14:42:54;5.38;;;1.30;;
4873;SDS011;2451;49.970;9.068;2023-05-10T14:45:20;3.17;;;1.48;;
4873;SDS011;2451;49.970;9.068;2023-05-10T14:47:46;2.25;;;1.10;;
4873;SDS011;2451;49.970;9.068;2023-05-10T14:50:11;3.38;;;1.25;;
4873;SDS011;2451;49.970;9.068;2023-05-10T14:52:37;4.60;;;1.30;;
4873;SDS011;2451;49.970;9.068;2023-05-10T14:55:02;2.58;;;1.23;;
4873;SDS011;2451;49.970;9.068;2023-05-10T14:57:28;5.35;;;1.50;;
4873;SDS011;2451;49.970;9.068;2023-05-10T14:59:54;3.72;;;1.50;;
4873;SDS011;2451;49.970;9.068;2023-05-10T15:02:21;4.38;;;1.90;;
4873;SDS011;2451;49.970;9.068;2023-05-10T15:04:47;12.23;;;10.05;;
4873;SDS011;2451;49.970;9.068;2023-05-10T15:07:12;9.13;;;7.28;;
4873;SDS011;2451;49.970;9.068;2023-05-10T15:09:41;7.60;;;4.43;;
4873;SDS011;2451;49.970;9.068;2023-05-10T15:12:06;5.35;;;1.50;;
4873;SDS011;2451;49.970;9.068;2023-05-10T15:14:32;5.32;;;1.60;;
4873;SDS011;2451;49.970;9.068;2023-05-10T15:16:58;5.07;;;1.70;;
4873;SDS011;2451;49.970;9.068;2023-05-10T15:19:24;5.53;;;1.30;;
4873;SDS011;2451;49.970;9.068;2023-05-10T15:21:49;2.90;;;1.58;;
4873;SDS011;2451;49.970;9.068;2023-05-10T15:24:15;4.07;;;1.40;;
4873;SDS011;2451;49.970;9.068;2023-05-10T15:26:40;7.43;;;1.67;;
4873;SDS011;2451;49.970;9.068;2023-05-10T15:29:06;3.22;;;1.00;;
4873;SDS011;2451;49.970;9.068;2023-05-10T15:31:32;3.22;;;1.30;;
4873;SDS011;2451;49.970;9.068;2023-05-10T15:34:00;4.95;;;1.30;;
4873;SDS011;2451;49.970;9.068;2023-05-10T15:36:26;2.25;;;1.20;;
4873;SDS011;2451;49.970;9.068;2023-05-10T15:38:52;3.95;;;1.13;;
4873;SDS011;2451;49.970;9.068;2023-05-10T15:41:21;4.80;;;1.52;;
4873;SDS011;2451;49.970;9.068;2023-05-10T15:43:46;3.00;;;1.10;;
4873;SDS011;2451;49.970;9.068;2023-05-10T15:46:12;2.47;;;1.10;;